sensor_id;sensor_type;location;lat;lon;timestamp;temperature;humidity
83685;DHT22;73666;51.304;5.776;2024-01-06T00:02:26;6.60;79.20
83685;DHT22;73666;51.304;5.776;2024-01-06T00:07:27;6.60;79.30
83685;DHT22;73666;51.304;5.776;2024-01-06T00:12:28;6.60;79.30
83685;DHT22;73666;51.304;5.776;2024-01-06T00:17:28;6.50;79.40
83685;DHT22;73666;51.304;5.776;2024-01-06T00:22:29;6.40;79.40
83685;DHT22;73666;51.304;5.776;2024-01-06T00:27:30;6.40;79.50
83685;DHT22;73666;51.304;5.776;2024-01-06T00:32:30;6.50;79.50
83685;DHT22;73666;51.304;5.776;2024-01-06T00:37:31;6.40;79.50
83685;DHT22;73666;51.304;5.776;2024-01-06T00:42:32;6.40;79.50
83685;DHT22;73666;51.304;5.776;2024-01-06T00:47:33;6.30;79.60
83685;DHT22;73666;51.304;5.776;2024-01-06T00:52:33;6.40;79.60
83685;DHT22;73666;51.304;5.776;2024-01-06T00:57:34;6.30;79.60
83685;DHT22;73666;51.304;5.776;2024-01-06T01:02:38;6.30;79.60
83685;DHT22;73666;51.304;5.776;2024-01-06T01:07:39;6.30;79.70
83685;DHT22;73666;51.304;5.776;2024-01-06T01:12:40;6.40;79.70
83685;DHT22;73666;51.304;5.776;2024-01-06T01:17:40;6.30;79.80
83685;DHT22;73666;51.304;5.776;2024-01-06T01:22:41;6.30;80.00
83685;DHT22;73666;51.304;5.776;2024-01-06T01:27:42;6.30;80.00
83685;DHT22;73666;51.304;5.776;2024-01-06T01:32:43;6.30;80.00
83685;DHT22;73666;51.304;5.776;2024-01-06T01:37:44;6.30;80.00
83685;DHT22;73666;51.304;5.776;2024-01-06T01:42:44;6.30;79.80
83685;DHT22;73666;51.304;5.776;2024-01-06T01:47:45;6.30;79.70
83685;DHT22;73666;51.304;5.776;2024-01-06T01:52:46;6.30;79.70
83685;DHT22;73666;51.304;5.776;2024-01-06T01:57:47;6.20;79.70
83685;DHT22;73666;51.304;5.776;2024-01-06T02:02:48;6.20;79.70
83685;DHT22;73666;51.304;5.776;2024-01-06T02:07:49;6.20;79.80
83685;DHT22;73666;51.304;5.776;2024-01-06T02:12:51;6.20;79.80
83685;DHT22;73666;51.304;5.776;2024-01-06T02:17:52;6.20;79.80
83685;DHT22;73666;51.304;5.776;2024-01-06T02:22:52;6.20;79.70
83685;DHT22;73666;51.304;5.776;2024-01-06T02:27:53;6.10;79.70
83685;DHT22;73666;51.304;5.776;2024-01-06T02:32:54;6.20;79.60
83685;DHT22;73666;51.304;5.776;2024-01-06T02:37:55;6.10;79.60
83685;DHT22;73666;51.304;5.776;2024-01-06T02:42:55;6.10;79.60
83685;DHT22;73666;51.304;5.776;2024-01-06T02:47:56;6.10;79.50
83685;DHT22;73666;51.304;5.776;2024-01-06T02:52:57;6.10;79.50
83685;DHT22;73666;51.304;5.776;2024-01-06T02:57:58;6.00;79.50
83685;DHT22;73666;51.304;5.776;2024-01-06T03:02:58;6.00;79.50
83685;DHT22;73666;51.304;5.776;2024-01-06T03:07:59;5.90;79.50
83685;DHT22;73666;51.304;5.776;2024-01-06T03:13:00;5.90;79.60
83685;DHT22;73666;51.304;5.776;2024-01-06T03:18:01;5.90;79.60
83685;DHT22;73666;51.304;5.776;2024-01-06T03:23:01;5.90;79.60
83685;DHT22;73666;51.304;5.776;2024-01-06T03:28:02;5.90;79.60
83685;DHT22;73666;51.304;5.776;2024-01-06T03:33:03;5.90;79.50
83685;DHT22;73666;51.304;5.776;2024-01-06T03:38:04;5.80;79.50
83685;DHT22;73666;51.304;5.776;2024-01-06T03:43:04;5.80;79.40
83685;DHT22;73666;51.304;5.776;2024-01-06T03:48:09;5.80;79.40
83685;DHT22;73666;51.304;5.776;2024-01-06T03:53:10;5.80;79.10
83685;DHT22;73666;51.304;5.776;2024-01-06T03:58:10;5.70;78.70
83685;DHT22;73666;51.304;5.776;2024-01-06T04:03:12;5.60;78.10
83685;DHT22;73666;51.304;5.776;2024-01-06T04:08:13;5.50;77.60
83685;DHT22;73666;51.304;5.776;2024-01-06T04:13:15;5.30;77.50
83685;DHT22;73666;51.304;5.776;2024-01-06T04:18:16;5.30;77.60
83685;DHT22;73666;51.304;5.776;2024-01-06T04:23:17;5.30;77.40
83685;DHT22;73666;51.304;5.776;2024-01-06T04:28:17;5.20;77.50
83685;DHT22;73666;51.304;5.776;2024-01-06T04:33:18;5.10;77.40
83685;DHT22;73666;51.304;5.776;2024-01-06T04:38:19;5.10;77.30
83685;DHT22;73666;51.304;5.776;2024-01-06T04:43:19;5.00;77.30
83685;DHT22;73666;51.304;5.776;2024-01-06T04:48:20;5.00;77.20
83685;DHT22;73666;51.304;5.776;2024-01-06T04:53:21;5.00;77.50
83685;DHT22;73666;51.304;5.776;2024-01-06T04:58:22;5.00;77.80
83685;DHT22;73666;51.304;5.776;2024-01-06T05:03:23;5.00;77.80
83685;DHT22;73666;51.304;5.776;2024-01-06T05:08:23;5.00;77.80
83685;DHT22;73666;51.304;5.776;2024-01-06T05:13:25;5.00;77.90
83685;DHT22;73666;51.304;5.776;2024-01-06T05:18:25;5.00;77.90
83685;DHT22;73666;51.304;5.776;2024-01-06T05:23:26;5.00;77.90
83685;DHT22;73666;51.304;5.776;2024-01-06T05:28:27;4.90;77.90
83685;DHT22;73666;51.304;5.776;2024-01-06T05:33:27;4.90;77.80
83685;DHT22;73666;51.304;5.776;2024-01-06T05:38:28;4.80;77.70
83685;DHT22;73666;51.304;5.776;2024-01-06T05:43:29;4.70;77.70
83685;DHT22;73666;51.304;5.776;2024-01-06T05:48:31;4.70;77.80
83685;DHT22;73666;51.304;5.776;2024-01-06T05:53:32;4.70;77.90
83685;DHT22;73666;51.304;5.776;2024-01-06T05:58:33;4.70;77.90
83685;DHT22;73666;51.304;5.776;2024-01-06T06:03:33;4.70;77.90
83685;DHT22;73666;51.304;5.776;2024-01-06T06:08:34;4.70;77.80
83685;DHT22;73666;51.304;5.776;2024-01-06T06:13:35;4.70;77.90
83685;DHT22;73666;51.304;5.776;2024-01-06T06:18:36;4.60;77.90
83685;DHT22;73666;51.304;5.776;2024-01-06T06:23:36;4.70;77.80
83685;DHT22;73666;51.304;5.776;2024-01-06T06:28:40;4.70;77.80
83685;DHT22;73666;51.304;5.776;2024-01-06T06:33:41;4.60;77.70
83685;DHT22;73666;51.304;5.776;2024-01-06T06:38:42;4.60;77.90
83685;DHT22;73666;51.304;5.776;2024-01-06T06:43:43;4.50;77.70
83685;DHT22;73666;51.304;5.776;2024-01-06T06:48:44;4.50;77.70
83685;DHT22;73666;51.304;5.776;2024-01-06T06:53:44;4.50;77.90
83685;DHT22;73666;51.304;5.776;2024-01-06T06:58:45;4.50;77.70
83685;DHT22;73666;51.304;5.776;2024-01-06T07:03:46;4.50;77.80
83685;DHT22;73666;51.304;5.776;2024-01-06T07:08:46;4.50;77.90
83685;DHT22;73666;51.304;5.776;2024-01-06T07:13:47;4.60;78.00
83685;DHT22;73666;51.304;5.776;2024-01-06T07:18:48;4.60;78.00
83685;DHT22;73666;51.304;5.776;2024-01-06T07:23:49;4.50;77.80
83685;DHT22;73666;51.304;5.776;2024-01-06T07:28:49;4.50;77.80
83685;DHT22;73666;51.304;5.776;2024-01-06T07:33:50;4.50;77.60
83685;DHT22;73666;51.304;5.776;2024-01-06T07:38:51;4.50;77.50
83685;DHT22;73666;51.304;5.776;2024-01-06T07:43:52;4.40;77.30
83685;DHT22;73666;51.304;5.776;2024-01-06T07:48:53;4.40;77.40
83685;DHT22;73666;51.304;5.776;2024-01-06T07:53:54;4.40;77.40
83685;DHT22;73666;51.304;5.776;2024-01-06T07:58:54;4.40;77.60
83685;DHT22;73666;51.304;5.776;2024-01-06T08:03:55;4.40;77.40
83685;DHT22;73666;51.304;5.776;2024-01-06T08:08:56;4.40;77.30
83685;DHT22;73666;51.304;5.776;2024-01-06T08:13:56;4.40;77.30
83685;DHT22;73666;51.304;5.776;2024-01-06T08:18:57;4.40;77.50
83685;DHT22;73666;51.304;5.776;2024-01-06T08:23:58;4.30;77.30
83685;DHT22;73666;51.304;5.776;2024-01-06T08:28:58;4.30;77.30
83685;DHT22;73666;51.304;5.776;2024-01-06T08:33:59;4.30;77.40
83685;DHT22;73666;51.304;5.776;2024-01-06T08:39:00;4.30;77.40
83685;DHT22;73666;51.304;5.776;2024-01-06T08:44:01;4.40;77.30
83685;DHT22;73666;51.304;5.776;2024-01-06T08:49:01;4.30;77.30
83685;DHT22;73666;51.304;5.776;2024-01-06T08:54:03;4.30;77.50
83685;DHT22;73666;51.304;5.776;2024-01-06T08:59:06;4.40;77.50
83685;DHT22;73666;51.304;5.776;2024-01-06T09:04:07;4.40;77.30
83685;DHT22;73666;51.304;5.776;2024-01-06T09:09:09;4.40;77.40
83685;DHT22;73666;51.304;5.776;2024-01-06T09:14:13;4.40;77.20
83685;DHT22;73666;51.304;5.776;2024-01-06T09:19:14;4.30;77.00
83685;DHT22;73666;51.304;5.776;2024-01-06T09:24:14;4.30;77.00
83685;DHT22;73666;51.304;5.776;2024-01-06T09:29:15;4.30;76.80
83685;DHT22;73666;51.304;5.776;2024-01-06T09:34:16;4.20;76.70
83685;DHT22;73666;51.304;5.776;2024-01-06T09:39:17;4.20;76.60
83685;DHT22;73666;51.304;5.776;2024-01-06T09:44:18;4.10;76.70
83685;DHT22;73666;51.304;5.776;2024-01-06T09:49:23;4.00;76.90
83685;DHT22;73666;51.304;5.776;2024-01-06T09:54:25;4.00;76.90
83685;DHT22;73666;51.304;5.776;2024-01-06T09:59:29;4.00;76.90
83685;DHT22;73666;51.304;5.776;2024-01-06T10:04:35;4.10;77.00
83685;DHT22;73666;51.304;5.776;2024-01-06T10:09:35;4.10;77.00
83685;DHT22;73666;51.304;5.776;2024-01-06T10:14:37;4.10;76.90
83685;DHT22;73666;51.304;5.776;2024-01-06T10:19:38;4.10;76.80
83685;DHT22;73666;51.304;5.776;2024-01-06T10:24:39;4.10;76.80
83685;DHT22;73666;51.304;5.776;2024-01-06T10:29:40;4.10;76.80
83685;DHT22;73666;51.304;5.776;2024-01-06T10:34:40;4.20;76.80
83685;DHT22;73666;51.304;5.776;2024-01-06T10:39:45;4.20;76.20
83685;DHT22;73666;51.304;5.776;2024-01-06T10:44:47;4.10;75.90
83685;DHT22;73666;51.304;5.776;2024-01-06T10:49:48;4.10;75.50
83685;DHT22;73666;51.304;5.776;2024-01-06T10:54:51;4.10;75.50
83685;DHT22;73666;51.304;5.776;2024-01-06T10:59:54;4.00;75.70
83685;DHT22;73666;51.304;5.776;2024-01-06T11:04:55;4.10;75.70
83685;DHT22;73666;51.304;5.776;2024-01-06T11:10:06;4.10;75.70
83685;DHT22;73666;51.304;5.776;2024-01-06T11:15:08;4.10;75.70
83685;DHT22;73666;51.304;5.776;2024-01-06T11:20:09;4.10;75.50
83685;DHT22;73666;51.304;5.776;2024-01-06T11:25:15;4.20;75.30
83685;DHT22;73666;51.304;5.776;2024-01-06T11:30:26;4.10;75.50
83685;DHT22;73666;51.304;5.776;2024-01-06T11:35:27;4.10;75.50
83685;DHT22;73666;51.304;5.776;2024-01-06T11:40:36;4.10;75.30
83685;DHT22;73666;51.304;5.776;2024-01-06T11:45:38;4.10;75.30
83685;DHT22;73666;51.304;5.776;2024-01-06T11:50:41;4.10;75.10
83685;DHT22;73666;51.304;5.776;2024-01-06T11:55:42;4.00;75.20
83685;DHT22;73666;51.304;5.776;2024-01-06T12:00:54;4.00;75.30
83685;DHT22;73666;51.304;5.776;2024-01-06T12:06:02;3.90;75.30
83685;DHT22;73666;51.304;5.776;2024-01-06T12:11:04;3.90;75.40
83685;DHT22;73666;51.304;5.776;2024-01-06T12:16:05;3.90;75.60
83685;DHT22;73666;51.304;5.776;2024-01-06T12:21:06;3.90;75.70
83685;DHT22;73666;51.304;5.776;2024-01-06T12:26:07;3.90;75.50
83685;DHT22;73666;51.304;5.776;2024-01-06T12:31:11;3.90;75.50
83685;DHT22;73666;51.304;5.776;2024-01-06T12:36:12;3.90;75.80
83685;DHT22;73666;51.304;5.776;2024-01-06T12:41:13;3.90;75.60
83685;DHT22;73666;51.304;5.776;2024-01-06T12:46:14;3.90;75.60
83685;DHT22;73666;51.304;5.776;2024-01-06T12:51:18;3.90;75.50
83685;DHT22;73666;51.304;5.776;2024-01-06T12:56:18;3.90;75.40
83685;DHT22;73666;51.304;5.776;2024-01-06T13:01:20;3.90;75.30
83685;DHT22;73666;51.304;5.776;2024-01-06T13:06:21;3.90;75.30
83685;DHT22;73666;51.304;5.776;2024-01-06T13:11:21;3.90;75.40
83685;DHT22;73666;51.304;5.776;2024-01-06T13:16:22;3.90;75.40
83685;DHT22;73666;51.304;5.776;2024-01-06T13:21:23;3.90;75.40
83685;DHT22;73666;51.304;5.776;2024-01-06T13:26:24;3.90;75.30
83685;DHT22;73666;51.304;5.776;2024-01-06T13:31:25;3.80;75.30
83685;DHT22;73666;51.304;5.776;2024-01-06T13:36:27;3.80;75.20
83685;DHT22;73666;51.304;5.776;2024-01-06T13:41:28;3.90;75.30
83685;DHT22;73666;51.304;5.776;2024-01-06T13:46:29;3.90;75.30
83685;DHT22;73666;51.304;5.776;2024-01-06T13:51:29;3.90;75.40
83685;DHT22;73666;51.304;5.776;2024-01-06T13:56:30;3.90;75.30
83685;DHT22;73666;51.304;5.776;2024-01-06T14:01:32;3.90;75.10
83685;DHT22;73666;51.304;5.776;2024-01-06T14:06:33;4.00;75.00
83685;DHT22;73666;51.304;5.776;2024-01-06T14:11:34;3.90;74.60
83685;DHT22;73666;51.304;5.776;2024-01-06T14:16:34;3.80;74.70
83685;DHT22;73666;51.304;5.776;2024-01-06T14:21:36;3.70;74.50
83685;DHT22;73666;51.304;5.776;2024-01-06T14:26:36;3.50;74.50
83685;DHT22;73666;51.304;5.776;2024-01-06T14:31:38;3.50;74.80
83685;DHT22;73666;51.304;5.776;2024-01-06T14:36:38;3.50;74.90
83685;DHT22;73666;51.304;5.776;2024-01-06T14:41:40;3.40;75.00
83685;DHT22;73666;51.304;5.776;2024-01-06T14:46:41;3.30;75.20
83685;DHT22;73666;51.304;5.776;2024-01-06T14:51:42;3.30;75.00
83685;DHT22;73666;51.304;5.776;2024-01-06T14:56:45;3.30;75.10
83685;DHT22;73666;51.304;5.776;2024-01-06T15:01:46;3.30;75.20
83685;DHT22;73666;51.304;5.776;2024-01-06T15:06:47;3.30;75.40
83685;DHT22;73666;51.304;5.776;2024-01-06T15:11:49;3.30;75.40
83685;DHT22;73666;51.304;5.776;2024-01-06T15:16:51;3.20;75.10
83685;DHT22;73666;51.304;5.776;2024-01-06T15:21:52;3.20;75.20
83685;DHT22;73666;51.304;5.776;2024-01-06T15:26:52;3.20;75.40
83685;DHT22;73666;51.304;5.776;2024-01-06T15:31:53;3.20;75.40
83685;DHT22;73666;51.304;5.776;2024-01-06T15:36:57;3.20;75.40
83685;DHT22;73666;51.304;5.776;2024-01-06T15:41:58;3.10;75.10
83685;DHT22;73666;51.304;5.776;2024-01-06T15:46:59;3.10;75.10
83685;DHT22;73666;51.304;5.776;2024-01-06T15:52:00;3.10;75.20
83685;DHT22;73666;51.304;5.776;2024-01-06T15:57:01;3.10;75.10
83685;DHT22;73666;51.304;5.776;2024-01-06T16:02:02;3.10;75.20
83685;DHT22;73666;51.304;5.776;2024-01-06T16:07:03;3.10;75.20
83685;DHT22;73666;51.304;5.776;2024-01-06T16:12:06;3.00;75.30
83685;DHT22;73666;51.304;5.776;2024-01-06T16:17:07;3.00;75.30
83685;DHT22;73666;51.304;5.776;2024-01-06T16:22:08;3.00;75.50
83685;DHT22;73666;51.304;5.776;2024-01-06T16:27:10;3.00;75.50
83685;DHT22;73666;51.304;5.776;2024-01-06T16:32:11;3.00;75.40
83685;DHT22;73666;51.304;5.776;2024-01-06T16:37:18;3.00;75.40
83685;DHT22;73666;51.304;5.776;2024-01-06T16:42:20;3.00;75.50
83685;DHT22;73666;51.304;5.776;2024-01-06T16:47:21;3.00;75.20
83685;DHT22;73666;51.304;5.776;2024-01-06T16:52:22;2.90;75.20
83685;DHT22;73666;51.304;5.776;2024-01-06T16:57:30;2.90;75.20
83685;DHT22;73666;51.304;5.776;2024-01-06T17:02:34;2.90;75.30
83685;DHT22;73666;51.304;5.776;2024-01-06T17:07:35;2.90;75.30
83685;DHT22;73666;51.304;5.776;2024-01-06T17:12:36;2.90;75.20
83685;DHT22;73666;51.304;5.776;2024-01-06T17:17:36;2.80;75.10
83685;DHT22;73666;51.304;5.776;2024-01-06T17:22:38;2.80;75.20
83685;DHT22;73666;51.304;5.776;2024-01-06T17:27:39;2.80;75.10
83685;DHT22;73666;51.304;5.776;2024-01-06T17:32:40;2.70;75.20
83685;DHT22;73666;51.304;5.776;2024-01-06T17:37:41;2.70;75.10
83685;DHT22;73666;51.304;5.776;2024-01-06T17:42:43;2.70;75.20
83685;DHT22;73666;51.304;5.776;2024-01-06T17:47:44;2.70;75.20
83685;DHT22;73666;51.304;5.776;2024-01-06T17:52:47;2.70;75.00
83685;DHT22;73666;51.304;5.776;2024-01-06T17:57:49;2.70;75.00
83685;DHT22;73666;51.304;5.776;2024-01-06T18:02:50;2.70;75.00
83685;DHT22;73666;51.304;5.776;2024-01-06T18:07:50;2.60;75.20
83685;DHT22;73666;51.304;5.776;2024-01-06T18:12:51;2.70;75.50
83685;DHT22;73666;51.304;5.776;2024-01-06T18:17:52;2.70;75.50
83685;DHT22;73666;51.304;5.776;2024-01-06T18:22:53;2.70;75.50
83685;DHT22;73666;51.304;5.776;2024-01-06T18:27:53;2.70;75.50
83685;DHT22;73666;51.304;5.776;2024-01-06T18:32:55;2.70;75.60
83685;DHT22;73666;51.304;5.776;2024-01-06T18:37:59;2.60;75.40
83685;DHT22;73666;51.304;5.776;2024-01-06T18:43:00;2.60;75.50
83685;DHT22;73666;51.304;5.776;2024-01-06T18:48:01;2.60;75.40
83685;DHT22;73666;51.304;5.776;2024-01-06T18:53:02;2.60;75.50
83685;DHT22;73666;51.304;5.776;2024-01-06T18:58:03;2.60;75.50
83685;DHT22;73666;51.304;5.776;2024-01-06T19:03:04;2.50;75.50
83685;DHT22;73666;51.304;5.776;2024-01-06T19:08:05;2.50;75.50
83685;DHT22;73666;51.304;5.776;2024-01-06T19:13:05;2.50;75.50
83685;DHT22;73666;51.304;5.776;2024-01-06T19:18:09;2.50;75.60
83685;DHT22;73666;51.304;5.776;2024-01-06T19:23:09;2.50;75.60
83685;DHT22;73666;51.304;5.776;2024-01-06T19:28:10;2.50;75.50
83685;DHT22;73666;51.304;5.776;2024-01-06T19:33:11;2.50;75.60
83685;DHT22;73666;51.304;5.776;2024-01-06T19:38:12;2.50;75.70
83685;DHT22;73666;51.304;5.776;2024-01-06T19:43:12;2.50;75.80
83685;DHT22;73666;51.304;5.776;2024-01-06T19:48:15;2.50;75.80
83685;DHT22;73666;51.304;5.776;2024-01-06T19:53:16;2.50;75.80
83685;DHT22;73666;51.304;5.776;2024-01-06T19:58:16;2.50;75.70
83685;DHT22;73666;51.304;5.776;2024-01-06T20:03:17;2.50;75.60
83685;DHT22;73666;51.304;5.776;2024-01-06T20:08:18;2.50;75.50
83685;DHT22;73666;51.304;5.776;2024-01-06T20:13:18;2.50;75.40
83685;DHT22;73666;51.304;5.776;2024-01-06T20:18:19;2.40;75.50
83685;DHT22;73666;51.304;5.776;2024-01-06T20:23:21;2.40;75.60
83685;DHT22;73666;51.304;5.776;2024-01-06T20:28:22;2.40;75.60
83685;DHT22;73666;51.304;5.776;2024-01-06T20:33:23;2.40;75.60
83685;DHT22;73666;51.304;5.776;2024-01-06T20:38:24;2.40;75.70
83685;DHT22;73666;51.304;5.776;2024-01-06T20:43:25;2.40;75.70
83685;DHT22;73666;51.304;5.776;2024-01-06T20:48:25;2.40;75.60
83685;DHT22;73666;51.304;5.776;2024-01-06T20:53:26;2.40;75.60
83685;DHT22;73666;51.304;5.776;2024-01-06T20:58:27;2.30;75.20
83685;DHT22;73666;51.304;5.776;2024-01-06T21:03:31;2.30;75.30
83685;DHT22;73666;51.304;5.776;2024-01-06T21:08:31;2.20;75.40
83685;DHT22;73666;51.304;5.776;2024-01-06T21:13:35;2.20;75.30
83685;DHT22;73666;51.304;5.776;2024-01-06T21:18:37;2.10;75.20
83685;DHT22;73666;51.304;5.776;2024-01-06T21:23:38;2.10;75.50
83685;DHT22;73666;51.304;5.776;2024-01-06T21:28:38;2.20;75.60
83685;DHT22;73666;51.304;5.776;2024-01-06T21:33:39;2.20;75.70
83685;DHT22;73666;51.304;5.776;2024-01-06T21:38:40;2.20;75.90
83685;DHT22;73666;51.304;5.776;2024-01-06T21:43:42;2.10;75.60
83685;DHT22;73666;51.304;5.776;2024-01-06T21:48:43;2.00;75.70
83685;DHT22;73666;51.304;5.776;2024-01-06T21:53:44;2.00;76.00
83685;DHT22;73666;51.304;5.776;2024-01-06T21:58:44;1.90;76.10
83685;DHT22;73666;51.304;5.776;2024-01-06T22:03:45;1.90;76.20
83685;DHT22;73666;51.304;5.776;2024-01-06T22:08:46;1.90;76.20
83685;DHT22;73666;51.304;5.776;2024-01-06T22:13:47;1.80;76.40
83685;DHT22;73666;51.304;5.776;2024-01-06T22:18:47;1.80;76.50
83685;DHT22;73666;51.304;5.776;2024-01-06T22:23:48;1.70;76.50
83685;DHT22;73666;51.304;5.776;2024-01-06T22:28:49;1.70;76.60
83685;DHT22;73666;51.304;5.776;2024-01-06T22:33:49;1.70;76.60
83685;DHT22;73666;51.304;5.776;2024-01-06T22:38:50;1.60;76.70
83685;DHT22;73666;51.304;5.776;2024-01-06T22:43:51;1.70;76.80
83685;DHT22;73666;51.304;5.776;2024-01-06T22:48:51;1.60;76.90
83685;DHT22;73666;51.304;5.776;2024-01-06T22:53:52;1.60;76.90
83685;DHT22;73666;51.304;5.776;2024-01-06T22:58:53;1.60;76.90
83685;DHT22;73666;51.304;5.776;2024-01-06T23:03:54;1.60;77.00
83685;DHT22;73666;51.304;5.776;2024-01-06T23:08:54;1.50;77.00
83685;DHT22;73666;51.304;5.776;2024-01-06T23:13:56;1.50;77.10
83685;DHT22;73666;51.304;5.776;2024-01-06T23:18:56;1.50;77.10
83685;DHT22;73666;51.304;5.776;2024-01-06T23:23:58;1.50;77.10
83685;DHT22;73666;51.304;5.776;2024-01-06T23:28:59;1.50;77.10
83685;DHT22;73666;51.304;5.776;2024-01-06T23:33:59;1.40;77.10
83685;DHT22;73666;51.304;5.776;2024-01-06T23:39:00;1.50;77.20
83685;DHT22;73666;51.304;5.776;2024-01-06T23:44:01;1.40;77.20
83685;DHT22;73666;51.304;5.776;2024-01-06T23:49:02;1.40;77.20
83685;DHT22;73666;51.304;5.776;2024-01-06T23:54:03;1.40;77.20
83685;DHT22;73666;51.304;5.776;2024-01-06T23:59:03;1.40;77.30
